メインページ
METAR-TAF:

METAR-TAF

空港 :

調布飛行場

調布, 日本

緯度: 35-40N, 経度: 139-32E, 海抜: 41m

現時点の気象観測

当レポートは5時間41分前の07:00(UTC)に作成
の風 3kt
気温 20°C
湿度 64%
気圧 1012 hPa
視程10km以上
高度3000ftの雲はほとんどない
千切れ雲あり

METAR: RJTF 160700Z 35003KT 9999 FEW030 BKN/// 20/13 Q1012

時間: 21:41 (12:41 UTC)


TAF: 見つかりません

4,000以上の空港の気象観測と天気予報(METAR報とTAF報)

利用可能な観測所は地図上に黄色い丸と赤い丸で示す。

丸の上にカーソルを重ねると観測所名を参照できる。

次にクリックすると気象観測と天気予報を参照できる。

マップの切り替え:黒色「×」印の緑ボタンをクリックして拡大、「-」印の緑ボタンをクリックして縮小、緑色の三角印をクリックして隣りの地図に切り替え


METAR-TAF: